Time;durP1;ratioP1;P1;durP2;ratioP2;P2;SDS_P1;SDS_P2;PMS_P1;PMS_P2;Temp;Humidity;BMP_temperature;BMP_pressure;BME280_temperature;BME280_humidity;BME280_pressure;Samples;Min_cycle;Max_cycle;Signal;HPM_P1;HPM_P2
2023/08/20 00:00:08;;;;;;;7.83;5.23;;;23.00;87.80;;;25.72;54.46;101986.81;5031075;28;20287;-57
2023/08/20 00:02:37;;;;;;;6.37;5.00;;;22.90;87.70;;;25.71;55.25;101987.84;5031571;28;20229;-55
2023/08/20 00:05:05;;;;;;;7.77;5.17;;;22.90;87.80;;;25.70;55.31;101991.63;5032076;28;20197;-55
2023/08/20 00:07:33;;;;;;;6.83;5.13;;;22.90;88.40;;;25.70;55.21;101991.63;5032585;28;20190;-55
2023/08/20 00:10:04;;;;;;;5.97;4.43;;;22.90;88.60;;;25.72;55.54;101981.41;5031767;28;20251;-58
2023/08/20 00:12:31;;;;;;;7.40;4.67;;;22.90;88.50;;;25.73;55.72;101983.03;5032256;28;20220;-56
2023/08/20 00:15:05;;;;;;;5.80;4.97;;;22.90;88.60;;;25.73;55.42;101978.47;5032758;28;20195;-54
2023/08/20 00:17:35;;;;;;;5.17;4.67;;;23.00;88.80;;;25.76;55.81;101985.25;5033185;28;20210;-57
2023/08/20 00:20:16;;;;;;;6.37;4.43;;;23.00;89.00;;;25.77;55.75;101985.00;5032303;28;20206;-56
2023/08/20 00:22:45;;;;;;;5.30;4.73;;;23.00;88.50;;;25.78;55.33;101985.81;5032706;28;20217;-56
2023/08/20 00:25:14;;;;;;;7.20;4.93;;;23.00;88.70;;;25.76;55.61;101983.38;5033995;28;20209;-54
2023/08/20 00:27:42;;;;;;;8.07;5.03;;;23.00;88.60;;;25.76;55.72;101993.34;5031816;28;20635;-57
2023/08/20 00:30:12;;;;;;;9.53;8.10;;;23.00;88.40;;;25.74;55.08;101995.47;5032498;28;20256;-56
2023/08/20 00:32:39;;;;;;;6.83;5.40;;;23.00;88.10;;;25.70;55.61;101999.72;5032436;28;20307;-58
2023/08/20 00:35:07;;;;;;;10.43;5.43;;;23.00;88.00;;;25.67;55.47;102005.59;5014199;28;20203;-57
2023/08/20 00:37:35;;;;;;;7.37;5.27;;;23.00;88.30;;;25.62;55.95;101998.25;5022189;28;20221;-55
2023/08/20 00:40:05;;;;;;;6.77;4.63;;;22.90;88.50;;;25.62;55.70;102000.09;5032181;28;20642;-58
2023/08/20 00:42:32;;;;;;;7.90;4.83;;;22.90;88.60;;;25.61;55.16;101998.47;5032017;28;20210;-55
2023/08/20 00:44:59;;;;;;;6.93;4.53;;;22.90;88.40;;;25.59;55.28;101996.03;5031234;28;20631;-57
2023/08/20 00:47:28;;;;;;;7.40;4.90;;;22.90;88.70;;;25.57;55.18;102000.84;5032647;28;20656;-58
2023/08/20 00:49:56;;;;;;;4.57;3.87;;;22.80;88.40;;;25.54;55.63;101995.94;5031804;28;20215;-55
2023/08/20 00:52:23;;;;;;;7.27;4.20;;;22.80;88.20;;;25.49;55.69;101999.34;5032640;28;20249;-58
2023/08/20 00:54:50;;;;;;;6.73;4.37;;;22.80;88.10;;;25.44;55.35;102003.81;5032409;28;20260;-58
2023/08/20 00:57:19;;;;;;;7.60;4.13;;;22.70;88.00;;;25.38;55.13;102008.28;5032297;28;20222;-55
2023/08/20 00:59:51;;;;;;;5.80;4.43;;;22.70;88.10;;;25.31;55.80;101996.84;5032281;28;20225;-58
2023/08/20 01:02:18;;;;;;;6.40;4.23;;;22.60;88.20;;;25.24;55.19;101989.94;5032755;28;20202;-57
2023/08/20 01:04:48;;;;;;;5.47;4.10;;;22.60;88.20;;;25.17;55.22;102000.88;5032185;28;20281;-58
2023/08/20 01:07:27;;;;;;;6.97;5.67;;;22.50;88.40;;;25.11;55.42;102003.69;5032889;28;20273;-56
2023/08/20 01:10:07;;;;;;;7.47;4.97;;;22.40;88.70;;;25.05;55.54;102002.78;5032118;28;20233;-58
2023/08/20 01:12:35;;;;;;;10.10;8.30;;;22.40;88.80;;;25.03;56.22;101994.09;5032287;28;20222;-57
2023/08/20 01:15:03;;;;;;;6.87;5.43;;;22.30;88.90;;;25.01;56.27;101995.44;5032073;28;20202;-55
2023/08/20 01:17:30;;;;;;;7.73;4.47;;;22.30;89.00;;;24.98;55.82;102001.28;5032616;28;20194;-58
2023/08/20 01:19:59;;;;;;;7.57;4.73;;;22.30;89.10;;;24.94;56.31;102000.94;5031791;28;20246;-56
2023/08/20 01:23:18;;;;;;;13.27;10.07;;;22.30;89.10;;;24.78;56.70;101996.28;5032339;28;20234;-54
2023/08/20 01:26:07;;;;;;;9.73;7.07;;;22.30;89.10;;;24.70;56.76;102002.00;5016028;28;20234;-56
2023/08/20 01:28:37;;;;;;;7.33;5.10;;;22.20;89.30;;;24.69;56.74;102003.91;5031827;28;20187;-57
2023/08/20 01:31:05;;;;;;;8.67;5.20;;;22.10;90.00;;;24.69;58.05;102003.06;5033473;28;20226;-54
2023/08/20 01:33:33;;;;;;;9.03;7.30;;;22.10;90.50;;;24.70;57.85;101993.91;5037358;28;20202;-54
2023/08/20 01:36:00;;;;;;;8.67;6.43;;;22.10;90.50;;;24.72;57.64;101994.53;5035836;28;20659;-60
2023/08/20 01:38:27;;;;;;;6.57;5.97;;;22.10;90.70;;;24.74;57.88;101997.81;5019163;28;20202;-56
2023/08/20 01:40:56;;;;;;;8.17;5.33;;;22.10;90.80;;;24.75;58.43;101996.72;5016085;28;20247;-57
2023/08/20 01:43:23;;;;;;;8.20;6.60;;;22.10;90.90;;;24.77;58.17;102000.84;5016223;28;20641;-58
2023/08/20 01:45:51;;;;;;;8.33;7.13;;;22.10;91.10;;;24.81;58.68;101998.50;5034942;28;20224;-57
2023/08/20 01:48:19;;;;;;;10.97;7.90;;;22.10;90.90;;;24.77;57.91;102000.84;5035774;28;20651;-54
2023/08/20 01:50:46;;;;;;;7.40;6.60;;;22.10;90.70;;;24.74;58.35;102001.31;5035192;28;20207;-56
2023/08/20 01:53:14;;;;;;;11.80;9.13;;;22.10;90.80;;;24.73;57.98;102006.91;5035500;28;20198;-56
2023/08/20 01:55:41;;;;;;;8.27;7.23;;;22.10;90.80;;;24.70;58.00;102002.00;5035426;28;20267;-56
2023/08/20 01:58:08;;;;;;;9.27;7.47;;;22.10;90.80;;;24.67;57.98;102013.28;5035282;28;20240;-54
2023/08/20 02:00:35;;;;;;;10.50;8.70;;;22.00;90.80;;;24.66;57.93;102009.75;5034489;28;20207;-56
2023/08/20 02:03:04;;;;;;;9.83;8.87;;;22.00;90.70;;;24.59;58.48;102008.22;5035220;28;20765;-55
2023/08/20 02:05:31;;;;;;;8.90;8.00;;;22.00;90.70;;;24.52;58.53;102008.38;5035372;28;20221;-57
2023/08/20 02:07:58;;;;;;;9.50;8.00;;;22.00;90.70;;;24.45;58.28;102007.66;5035734;28;20194;-56
2023/08/20 02:10:25;;;;;;;9.43;8.00;;;21.90;90.70;;;24.41;58.73;102016.44;5035152;28;20301;-54
2023/08/20 02:12:52;;;;;;;9.87;7.50;;;21.80;90.70;;;24.36;58.23;102021.72;5036024;28;20191;-56
2023/08/20 02:15:19;;;;;;;9.37;8.23;;;21.80;90.80;;;24.29;58.49;102012.94;5035121;28;20195;-58
2023/08/20 02:17:46;;;;;;;7.73;6.93;;;21.70;90.80;;;24.22;58.70;102013.06;5034902;28;20198;-58
2023/08/20 02:20:15;;;;;;;7.77;6.40;;;21.70;91.10;;;24.22;58.88;102007.66;5034715;28;20210;-54
2023/08/20 02:22:42;;;;;;;12.63;8.03;;;21.60;91.20;;;24.23;58.77;102010.13;5034999;28;20225;-55
2023/08/20 02:25:09;;;;;;;8.67;7.87;;;21.60;91.30;;;24.22;59.21;102013.84;5034685;28;20225;-56
2023/08/20 02:27:36;;;;;;;8.63;7.00;;;21.60;91.20;;;24.22;59.12;102013.84;5021511;28;20199;-55
2023/08/20 02:30:06;;;;;;;8.90;7.20;;;21.60;91.20;;;24.22;58.82;102023.81;5015071;28;20575;-56
2023/08/20 02:32:33;;;;;;;9.33;7.47;;;21.60;91.30;;;24.19;58.77;102019.72;5015562;28;20648;-54
2023/08/20 02:35:00;;;;;;;8.60;7.37;;;21.60;91.00;;;24.16;58.16;102024.75;5034878;28;20222;-55
2023/08/20 02:37:29;;;;;;;9.13;7.57;;;21.50;90.80;;;24.11;58.81;102014.66;5026854;28;20285;-55
2023/08/20 02:39:56;;;;;;;7.03;6.33;;;21.50;90.80;;;24.08;58.42;102017.81;5015273;28;20238;-58
2023/08/20 02:42:23;;;;;;;7.00;6.00;;;21.40;90.80;;;24.05;58.69;102007.50;5014774;28;20274;-57
2023/08/20 02:44:50;;;;;;;9.60;7.27;;;21.40;90.90;;;24.07;58.32;102016.19;5023610;28;20505;-54
2023/08/20 02:47:17;;;;;;;11.17;7.37;;;21.40;90.90;;;24.04;58.63;102016.63;5033989;28;20245;-57
2023/08/20 02:49:44;;;;;;;10.73;7.40;;;21.40;90.80;;;24.00;58.56;102020.84;5035317;28;20228;-57
2023/08/20 02:52:11;;;;;;;8.20;7.27;;;21.40;90.80;;;23.94;58.88;102019.06;5050487;28;20270;-57
2023/08/20 02:54:39;;;;;;;10.10;7.00;;;21.40;90.80;;;23.89;58.73;102024.31;5035223;28;20194;-58
2023/08/20 02:57:06;;;;;;;7.57;6.23;;;21.30;90.80;;;23.85;58.39;102020.44;5034540;28;20769;-58
2023/08/20 02:59:34;;;;;;;6.43;5.73;;;21.30;90.80;;;23.82;58.42;102023.59;5035120;28;20285;-58
2023/08/20 03:02:02;;;;;;;9.33;6.50;;;21.20;90.80;;;23.80;58.93;102020.31;5034552;28;20509;-58
2023/08/20 03:04:30;;;;;;;8.20;6.00;;;21.20;90.80;;;23.80;58.61;102014.94;5035036;28;20265;-58
2023/08/20 03:06:57;;;;;;;5.97;5.20;;;21.20;90.90;;;23.81;58.73;102027.34;5034079;28;20264;-57
2023/08/20 03:09:24;;;;;;;7.70;6.27;;;21.20;90.90;;;23.83;58.98;102021.72;5034764;28;20222;-55
2023/08/20 03:11:52;;;;;;;6.53;5.83;;;21.20;91.20;;;23.85;58.88;102020.44;5035108;28;20269;-56
2023/08/20 03:14:19;;;;;;;9.90;6.50;;;21.20;91.30;;;23.89;59.27;102018.94;5035103;28;20225;-57
2023/08/20 03:16:46;;;;;;;7.30;6.20;;;21.20;91.40;;;23.90;59.03;102015.19;5034642;28;20268;-57
2023/08/20 03:19:15;;;;;;;10.67;7.50;;;21.20;91.20;;;23.90;58.55;102019.75;5034087;28;20191;-53
2023/08/20 03:21:42;;;;;;;8.73;6.47;;;21.20;91.10;;;23.88;58.81;102017.31;5034212;28;20265;-55
2023/08/20 03:24:09;;;;;;;7.07;6.37;;;21.20;91.10;;;23.86;58.38;102014.03;5034384;28;20592;-55
2023/08/20 03:26:36;;;;;;;9.67;6.13;;;21.20;90.90;;;23.82;58.66;102018.22;5033988;28;21034;-56
2023/08/20 03:29:05;;;;;;;8.17;6.30;;;21.20;90.70;;;23.78;58.43;102017.03;5034339;28;20259;-58
2023/08/20 03:31:32;;;;;;;6.83;6.00;;;21.20;90.70;;;23.73;58.32;102008.84;5034139;28;20663;-56
2023/08/20 03:34:00;;;;;;;9.80;5.87;;;21.10;90.80;;;23.74;58.75;102029.31;5024006;28;20199;-55
2023/08/20 03:36:27;;;;;;;7.93;6.50;;;21.10;91.00;;;23.76;58.58;102035.28;5024857;28;20195;-57
2023/08/20 03:38:54;;;;;;;7.50;6.10;;;21.10;91.00;;;23.78;58.76;102037.72;5014108;28;20195;-58
2023/08/20 03:41:21;;;;;;;7.57;5.53;;;21.10;91.00;;;23.77;58.15;102036.91;5014582;28;20211;-58
2023/08/20 03:43:48;;;;;;;8.10;6.53;;;21.10;90.80;;;23.72;58.21;102044.03;5019582;28;20194;-55
2023/08/20 03:46:16;;;;;;;9.33;6.17;;;21.10;90.80;;;23.66;58.41;102048.44;5033522;28;20212;-56
2023/08/20 03:48:43;;;;;;;10.27;7.03;;;21.00;90.70;;;23.62;58.50;102044.59;5033821;28;20632;-57
2023/08/20 03:51:10;;;;;;;7.57;6.17;;;21.00;90.70;;;23.58;58.66;102040.72;5034138;28;20260;-55
2023/08/20 03:53:37;;;;;;;9.87;6.33;;;21.00;90.80;;;23.56;58.70;102042.81;5033683;28;20258;-54
2023/08/20 03:56:04;;;;;;;9.57;5.73;;;21.00;90.90;;;23.57;58.48;102049.81;5034033;28;20693;-57
2023/08/20 03:58:32;;;;;;;8.83;5.70;;;21.00;90.90;;;23.56;58.97;102051.69;5033508;28;20249;-57
2023/08/20 04:00:58;;;;;;;8.63;6.40;;;20.90;90.90;;;23.55;58.52;102062.69;5033839;28;20218;-57
2023/08/20 04:03:27;;;;;;;6.53;5.83;;;20.90;91.00;;;23.52;58.98;102061.25;5033707;28;20218;-56
2023/08/20 04:05:54;;;;;;;10.47;6.83;;;20.90;91.00;;;23.50;59.04;102067.91;5033520;28;20194;-54
2023/08/20 04:08:21;;;;;;;9.50;5.97;;;20.80;91.00;;;23.50;59.24;102068.75;5033663;28;20198;-55
2023/08/20 04:10:48;;;;;;;9.67;7.20;;;20.80;91.40;;;23.54;59.40;102061.84;5033601;28;20634;-56
2023/08/20 04:13:16;;;;;;;8.17;6.37;;;20.90;91.40;;;23.58;59.38;102061.41;5033285;28;20272;-57
2023/08/20 04:15:43;;;;;;;9.87;6.27;;;20.90;91.20;;;23.56;59.12;102067.00;5033655;28;20225;-53
2023/08/20 04:18:10;;;;;;;7.53;5.80;;;20.90;91.10;;;23.56;59.27;102069.69;5033484;28;20195;-57
2023/08/20 04:20:38;;;;;;;7.27;5.80;;;20.90;91.30;;;23.58;58.87;102071.09;5013606;28;20222;-55
2023/08/20 04:23:05;;;;;;;9.00;6.97;;;20.90;91.20;;;23.58;58.85;102071.09;5032971;28;20678;-56
2023/08/20 04:25:33;;;;;;;8.83;6.37;;;20.90;91.10;;;23.59;59.34;102080.00;5033608;28;20191;-57
2023/08/20 04:28:00;;;;;;;7.57;5.50;;;20.90;91.20;;;23.63;59.41;102075.00;5033880;28;20195;-55
2023/08/20 04:30:27;;;;;;;6.37;5.53;;;20.90;91.40;;;23.70;59.52;102067.66;5033202;28;20254;-56
2023/08/20 04:32:54;;;;;;;8.00;6.00;;;20.90;91.60;;;23.75;58.92;102071.28;5031754;28;20726;-53
2023/08/20 04:35:21;;;;;;;8.40;6.70;;;21.00;91.50;;;23.77;58.85;102069.19;5014159;28;20282;-54
2023/08/20 04:37:49;;;;;;;7.43;5.97;;;21.00;91.10;;;23.77;58.89;102069.19;5024677;28;20256;-55
2023/08/20 04:40:16;;;;;;;7.20;5.77;;;21.00;91.00;;;23.76;58.59;102054.09;5033308;28;20215;-58
2023/08/20 04:42:44;;;;;;;9.07;5.30;;;21.10;91.10;;;23.77;58.38;102049.56;5032929;28;20218;-58
2023/08/20 04:45:11;;;;;;;7.83;6.30;;;21.10;91.00;;;23.75;58.82;102044.38;5033614;28;20532;-58
2023/08/20 04:47:39;;;;;;;8.00;7.00;;;21.10;90.90;;;23.67;58.37;102030.47;5033097;28;20202;-57
2023/08/20 04:50:07;;;;;;;6.67;5.97;;;21.10;90.80;;;23.62;58.84;102017.69;5033246;28;20217;-57
2023/08/20 04:52:34;;;;;;;6.57;5.40;;;21.00;90.90;;;23.63;58.91;102018.53;5033281;28;20183;-54
2023/08/20 04:55:03;;;;;;;8.70;6.90;;;21.00;91.00;;;23.64;59.14;102026.34;5033275;28;20302;-58
2023/08/20 04:57:30;;;;;;;8.57;7.00;;;21.00;91.00;;;23.60;58.79;102035.94;5033510;28;20194;-61
2023/08/20 04:59:57;;;;;;;7.63;6.83;;;21.00;90.80;;;23.52;58.65;102033.56;5032085;28;20695;-57
2023/08/20 05:02:24;;;;;;;9.20;6.47;;;20.90;90.80;;;23.45;58.74;102032.81;5033334;28;20241;-58
2023/08/20 05:04:55;;;;;;;10.07;6.73;;;20.90;90.90;;;23.41;59.04;102039.72;5033152;28;20270;-57
2023/08/20 05:07:22;;;;;;;8.37;6.90;;;20.80;91.00;;;23.41;59.30;102053.16;5035936;28;20187;-58
2023/08/20 05:09:50;;;;;;;10.87;6.77;;;20.80;91.20;;;23.45;59.34;102059.72;5036362;28;20214;-58
2023/08/20 05:12:18;;;;;;;9.23;8.23;;;20.80;91.30;;;23.45;59.29;102062.41;5021866;28;20197;-56
2023/08/20 05:14:45;;;;;;;9.80;7.00;;;20.80;91.30;;;23.41;59.59;102058.53;5036141;28;20198;-57
2023/08/20 05:17:12;;;;;;;8.20;7.37;;;20.80;91.20;;;23.42;59.43;102065.53;5017323;28;20187;-56
2023/08/20 05:19:39;;;;;;;9.30;6.67;;;20.80;91.40;;;23.43;59.08;102072.56;5017564;28;20217;-55
2023/08/20 05:22:06;;;;;;;7.07;6.47;;;20.70;91.40;;;23.47;59.77;102063.00;5036532;28;20226;-56
2023/08/20 05:24:33;;;;;;;9.17;6.83;;;20.70;91.60;;;23.52;59.26;102071.19;5036461;28;20260;-53
2023/08/20 05:27:06;;;;;;;10.00;8.10;;;20.80;91.50;;;23.54;59.21;102074.47;5036849;28;20312;-56
2023/08/20 05:29:35;;;;;;;10.77;8.37;;;20.80;91.40;;;23.51;59.14;102081.13;5036126;28;20214;-57
2023/08/20 05:32:02;;;;;;;9.80;8.33;;;20.80;91.40;;;23.50;59.25;102089.44;5016541;28;20222;-57
2023/08/20 05:34:29;;;;;;;14.23;9.37;;;20.80;91.40;;;23.41;59.71;102093.47;5031219;28;20221;-56
2023/08/20 05:36:56;;;;;;;10.53;8.30;;;20.80;91.50;;;23.39;59.57;102087.50;5036280;28;20241;-57
2023/08/20 05:39:25;;;;;;;10.57;8.10;;;20.70;91.50;;;23.37;59.75;102089.56;5035673;28;20256;-57
2023/08/20 05:41:52;;;;;;;9.20;8.30;;;20.70;91.50;;;23.34;59.99;102087.34;5036233;28;20194;-57
2023/08/20 05:44:20;;;;;;;10.10;8.63;;;20.70;91.60;;;23.36;59.97;102096.00;5036155;28;20540;-55
2023/08/20 05:46:49;;;;;;;9.13;8.23;;;20.70;91.70;;;23.34;60.19;102092.69;5036481;28;20190;-54
2023/08/20 05:49:16;;;;;;;9.97;7.57;;;20.70;91.70;;;23.39;60.13;102100.94;5035740;28;20256;-55
2023/08/20 05:51:43;;;;;;;11.53;7.90;;;20.70;91.70;;;23.46;60.31;102107.06;5036184;28;20298;-55
2023/08/20 05:54:11;;;;;;;10.20;8.23;;;20.80;91.90;;;23.55;59.71;102098.47;5036104;28;20648;-55
2023/08/20 05:56:38;;;;;;;8.00;7.20;;;20.80;91.90;;;23.61;59.64;102102.09;5036068;28;20866;-54
2023/08/20 05:59:05;;;;;;;9.63;7.33;;;20.80;91.70;;;23.69;59.47;102104.47;5035397;28;20210;-56
2023/08/20 06:01:32;;;;;;;9.03;7.07;;;20.90;91.70;;;23.72;59.10;102106.72;5035722;28;20213;-56
2023/08/20 06:04:01;;;;;;;8.97;7.33;;;20.90;91.40;;;23.78;59.24;102102.28;5036058;28;20217;-56
2023/08/20 06:06:29;;;;;;;8.10;5.87;;;21.00;91.50;;;23.87;58.96;102112.50;5036042;28;20194;-55
2023/08/20 06:08:56;;;;;;;9.30;7.27;;;21.10;91.50;;;23.95;58.44;102105.97;5035854;28;20195;-55
2023/08/20 06:11:35;;;;;;;12.73;7.23;;;21.10;91.10;;;23.96;58.21;102094.97;5035982;28;20198;-58
2023/08/20 06:14:03;;;;;;;7.70;6.97;;;21.20;90.80;;;23.98;57.63;102095.59;5036258;28;20187;-56
2023/08/20 06:16:30;;;;;;;7.90;6.00;;;21.20;90.50;;;24.02;57.80;102095.94;5035650;28;20667;-56
2023/08/20 06:18:58;;;;;;;10.03;6.53;;;21.30;90.50;;;24.01;57.06;102087.03;5033709;28;20198;-57
2023/08/20 06:21:29;;;;;;;7.27;5.47;;;21.30;90.10;;;24.01;57.14;102081.66;5036389;28;20218;-53
2023/08/20 06:23:56;;;;;;;11.03;6.63;;;21.30;90.00;;;24.01;57.21;102086.25;5035910;28;20206;-57
2023/08/20 06:26:23;;;;;;;7.17;5.93;;;21.40;90.10;;;24.06;56.73;102083.66;5035828;28;20663;-53
2023/08/20 06:28:50;;;;;;;5.73;5.13;;;21.40;90.10;;;24.13;57.44;102087.91;5035429;28;20186;-56
2023/08/20 06:31:18;;;;;;;5.20;4.70;;;21.40;90.20;;;24.28;57.18;102087.47;5034820;28;20222;-56
2023/08/20 06:33:46;;;;;;;10.37;6.37;;;21.50;90.40;;;24.45;57.27;102093.00;5031051;28;20256;-56
2023/08/20 06:36:13;;;;;;;5.87;4.63;;;21.60;90.50;;;24.60;57.28;102093.38;5035539;28;20526;-55
2023/08/20 06:38:41;;;;;;;4.70;4.20;;;21.70;90.50;;;24.77;56.94;102107.81;5034630;28;20682;-54
2023/08/20 06:41:09;;;;;;;7.70;5.23;;;21.80;90.50;;;24.92;55.98;102104.63;5034830;28;20210;-54
2023/08/20 06:43:36;;;;;;;6.07;4.70;;;21.90;90.20;;;25.06;55.51;102101.44;5035333;28;20672;-54
2023/08/20 06:46:03;;;;;;;5.97;4.73;;;22.00;90.10;;;25.16;55.11;102106.22;5034583;28;20205;-54
2023/08/20 06:48:30;;;;;;;4.60;3.73;;;22.10;89.70;;;25.26;55.72;102107.28;5034665;28;20190;-54
2023/08/20 06:50:57;;;;;;;6.87;3.53;;;22.20;89.50;;;25.38;55.17;102105.38;5035121;28;20206;-54
2023/08/20 06:53:24;;;;;;;7.73;4.23;;;22.30;89.20;;;25.50;54.22;102092.69;5035087;28;20187;-55
2023/08/20 06:55:52;;;;;;;7.53;3.57;;;22.40;88.70;;;25.61;54.49;102090.16;5034767;28;20201;-58
2023/08/20 06:58:19;;;;;;;7.40;4.00;;;22.50;89.30;;;25.73;54.10;102090.94;5034818;28;20587;-59
2023/08/20 07:00:46;;;;;;;5.17;3.73;;;22.60;88.50;;;25.82;53.56;102094.88;5034686;28;20552;-56
2023/08/20 07:03:13;;;;;;;5.70;3.97;;;22.70;87.40;;;25.86;52.78;102096.06;5034705;28;20210;-58
2023/08/20 07:05:40;;;;;;;5.53;3.57;;;22.80;86.40;;;25.86;53.15;102096.06;5035098;28;20591;-57
2023/08/20 07:08:07;;;;;;;7.73;4.13;;;22.90;85.90;;;25.85;52.76;102099.81;5027175;28;20205;-57
2023/08/20 07:10:35;;;;;;;4.33;3.50;;;23.00;85.40;;;25.85;52.24;102094.41;5033515;28;20222;-60
2023/08/20 07:13:03;;;;;;;7.80;3.77;;;23.00;84.90;;;25.87;52.38;102092.28;5034633;28;20190;-55
2023/08/20 07:15:30;;;;;;;6.07;3.30;;;23.00;84.70;;;25.89;52.06;102092.84;5034538;28;20531;-57
2023/08/20 07:17:57;;;;;;;5.53;3.47;;;23.10;84.50;;;25.96;52.17;102096.25;5034771;28;20225;-56
2023/08/20 07:20:25;;;;;;;5.67;3.23;;;23.10;84.70;;;26.07;51.99;102098.88;5033725;28;20210;-57
2023/08/20 07:22:52;;;;;;;6.63;3.70;;;23.20;84.90;;;26.21;52.45;102107.50;5034575;28;20198;-58
2023/08/20 07:25:19;;;;;;;5.60;3.27;;;23.30;84.80;;;26.35;51.79;102110.69;5034259;28;20195;-58
2023/08/20 07:27:46;;;;;;;3.47;2.70;;;23.40;84.90;;;26.47;51.79;102100.63;5033963;28;20190;-56
2023/08/20 07:30:14;;;;;;;3.17;2.83;;;23.50;85.80;;;26.62;51.78;102101.69;5033116;28;20233;-55
2023/08/20 07:32:41;;;;;;;3.40;2.60;;;23.50;85.00;;;26.76;51.79;102107.59;5033991;28;20191;-55
2023/08/20 07:35:09;;;;;;;4.83;2.73;;;23.70;84.80;;;27.01;51.08;102104.41;5034611;28;20710;-59
2023/08/20 07:37:38;;;;;;;3.17;2.60;;;23.80;84.80;;;27.59;50.78;102107.34;5033908;28;20687;-54
2023/08/20 07:40:07;;;;;;;6.37;2.80;;;24.00;85.50;;;28.32;49.78;102100.47;5033672;28;20328;-56
2023/08/20 07:42:34;;;;;;;4.93;3.40;;;24.30;85.30;;;29.09;48.82;102117.00;5033524;28;20607;-60
2023/08/20 07:45:02;;;;;;;4.30;2.67;;;24.70;84.50;;;29.87;47.40;102111.34;5033724;28;20277;-55
2023/08/20 07:47:30;;;;;;;5.70;3.33;;;25.20;83.40;;;30.68;44.86;102098.56;5033928;28;20887;-56
2023/08/20 07:49:57;;;;;;;4.83;2.87;;;25.80;81.30;;;31.48;43.27;102096.69;5033191;28;20218;-55
2023/08/20 07:52:24;;;;;;;5.53;2.13;;;26.50;78.20;;;32.34;41.97;102105.06;5033894;28;20191;-55
2023/08/20 07:54:51;;;;;;;3.80;2.33;;;27.10;78.30;;;33.29;40.04;102108.72;5034026;28;20199;-57
2023/08/20 07:57:19;;;;;;;4.23;2.30;;;27.70;76.20;;;33.91;37.23;102109.47;5033736;28;20191;-56
2023/08/20 07:59:46;;;;;;;5.37;3.10;;;28.30;70.00;;;34.22;36.25;102113.38;5033355;28;20210;-55
2023/08/20 08:02:13;;;;;;;6.43;2.90;;;28.90;68.00;;;34.58;35.79;102111.66;5033370;28;20198;-59
2023/08/20 08:04:42;;;;;;;3.50;2.50;;;29.30;67.50;;;35.17;35.74;102112.72;5026290;28;20222;-56
2023/08/20 08:07:12;;;;;;;4.68;2.50;;;29.80;64.90;;;35.74;33.43;102112.00;5033599;28;20190;-53
2023/08/20 08:09:39;;;;;;;5.72;2.60;;;30.20;62.00;;;36.39;33.43;102122.47;5032832;28;20214;-56
2023/08/20 08:12:07;;;;;;;5.07;2.05;;;30.80;62.00;;;37.15;32.00;102124.78;5033277;28;20201;-55
2023/08/20 08:14:34;;;;;;;5.40;2.28;;;31.30;61.00;;;37.99;30.89;102124.38;5033657;28;20186;-58
2023/08/20 08:17:01;;;;;;;3.97;1.90;;;31.80;59.30;;;38.67;30.38;102120.69;5033852;28;20563;-57
2023/08/20 08:19:28;;;;;;;5.10;2.58;;;32.30;58.30;;;39.32;28.53;102114.72;5032998;28;20214;-57
2023/08/20 08:21:57;;;;;;;5.75;2.53;;;32.70;55.30;;;39.67;27.48;102118.84;5033639;28;20281;-58
2023/08/20 08:24:24;;;;;;;3.30;2.20;;;33.10;54.10;;;39.90;27.42;102125.59;5033408;28;20210;-57
2023/08/20 08:26:51;;;;;;;3.95;2.28;;;33.40;53.60;;;40.19;25.90;102121.94;5033163;28;20206;-57
2023/08/20 08:29:18;;;;;;;4.25;2.47;;;33.70;49.90;;;39.89;25.49;102123.97;5033015;28;20297;-56
2023/08/20 08:31:45;;;;;;;3.88;2.42;;;33.80;48.70;;;39.84;26.33;102126.94;5033501;28;20194;-56
2023/08/20 08:34:12;;;;;;;3.83;2.03;;;34.20;49.40;;;40.07;26.27;102119.13;5021237;28;20199;-55
2023/08/20 08:36:39;;;;;;;4.80;2.20;;;34.30;49.40;;;40.57;26.62;102121.69;5015416;28;20202;-58
2023/08/20 08:39:08;;;;;;;6.97;2.42;;;34.50;49.10;;;41.26;26.10;102126.28;5032505;28;20671;-55
2023/08/20 08:41:39;;;;;;;5.00;2.30;;;34.80;49.10;;;41.92;24.54;102127.50;5034960;28;20194;-57
2023/08/20 08:44:09;;;;;;;6.63;2.10;;;35.00;48.10;;;42.48;24.35;102125.47;5036673;28;20214;-57
2023/08/20 08:46:38;;;;;;;4.88;2.22;;;35.40;47.40;;;43.08;23.47;102124.19;5037920;28;20194;-58
2023/08/20 08:49:07;;;;;;;5.07;2.35;;;35.70;46.40;;;43.30;22.96;102129.09;5036888;28;20228;-59
2023/08/20 08:51:36;;;;;;;5.28;2.63;;;35.90;45.10;;;43.44;23.36;102132.16;5037246;28;20248;-55
2023/08/20 08:54:04;;;;;;;2.55;2.05;;;36.20;45.00;;;43.86;22.60;102132.28;5036973;28;20198;-58
2023/08/20 08:56:33;;;;;;;3.50;2.33;;;36.50;44.90;;;44.42;22.05;102127.75;5037287;28;20186;-58
2023/08/20 08:59:01;;;;;;;3.97;2.28;;;36.80;43.50;;;44.34;21.23;102123.25;5036278;28;20292;-59
2023/08/20 09:01:28;;;;;;;5.22;2.60;;;37.00;41.40;;;44.07;21.32;102120.78;5037145;28;20218;-57
2023/08/20 09:03:57;;;;;;;6.13;2.80;;;37.30;41.00;;;44.13;21.45;102124.84;5036727;28;20217;-56
2023/08/20 09:06:24;;;;;;;4.90;2.97;;;37.40;40.60;;;44.36;21.08;102128.47;5037079;28;20213;-54
2023/08/20 09:09:06;;;;;;;3.33;2.30;;;37.40;40.60;;;44.44;21.55;102130.16;5035975;28;20277;-59
2023/08/20 09:11:36;;;;;;;4.80;2.58;;;37.40;39.70;;;44.60;20.56;102127.28;5037209;28;20194;-57
2023/08/20 09:14:03;;;;;;;6.05;2.75;;;37.50;39.40;;;44.49;21.10;102120.75;5036410;28;20190;-56
2023/08/20 09:16:31;;;;;;;4.68;2.83;;;37.60;39.10;;;44.45;20.76;102126.22;5036534;28;20206;-54
2023/08/20 09:19:00;;;;;;;3.92;2.50;;;37.70;39.40;;;44.62;20.35;102131.31;5038590;28;20202;-59
2023/08/20 09:21:29;;;;;;;7.65;3.00;;;37.70;38.70;;;44.65;21.31;102124.97;5041596;28;20290;-55
2023/08/20 09:23:57;;;;;;;3.90;2.50;;;37.70;39.20;;;44.84;21.15;102124.91;5036920;28;20233;-58
2023/08/20 09:26:24;;;;;;;6.45;3.15;;;37.80;39.40;;;45.18;20.29;102128.59;5037043;28;20195;-57
2023/08/20 09:28:58;;;;;;;6.38;3.38;;;37.90;39.00;;;45.51;19.73;102125.06;5035863;28;20256;-57
2023/08/20 09:31:38;;;;;;;3.78;2.45;;;38.00;38.40;;;45.56;20.00;102119.16;5036433;28;20228;-58
2023/08/20 09:34:05;;;;;;;4.28;2.80;;;38.20;38.10;;;45.18;20.02;102113.88;5025318;28;20202;-55
2023/08/20 09:36:34;;;;;;;5.50;2.45;;;38.20;37.90;;;45.16;20.05;102117.03;5017377;28;20192;-59
2023/08/20 09:39:02;;;;;;;5.28;3.22;;;38.20;38.00;;;45.32;20.46;102114.09;5035961;28;20284;-57
2023/08/20 09:41:31;;;;;;;6.40;3.90;;;38.20;38.00;;;45.30;19.86;102110.88;5036824;28;20234;-59
2023/08/20 09:44:04;;;;;;;6.53;3.42;;;38.20;37.10;;;44.68;20.73;102107.56;5036097;28;20761;-59
2023/08/20 09:46:33;;;;;;;5.30;2.95;;;38.30;37.60;;;44.04;21.62;102115.91;5035354;28;20202;-56
2023/08/20 09:49:05;;;;;;;5.43;2.90;;;38.20;37.80;;;43.99;20.81;102111.47;5035920;28;20276;-58
2023/08/20 09:51:36;;;;;;;2.53;2.33;;;38.00;37.40;;;43.85;21.26;102108.44;5035071;28;20186;-57
2023/08/20 09:54:18;;;;;;;6.22;2.75;;;37.70;37.70;;;44.18;21.16;102110.66;5035252;28;20198;-54
2023/08/20 09:56:53;;;;;;;4.43;2.47;;;37.70;38.00;;;44.78;20.84;102104.16;5030213;28;20219;-58
2023/08/20 09:59:23;;;;;;;4.57;2.83;;;37.70;38.20;;;45.39;20.36;102114.16;5022721;28;20659;-57
2023/08/20 10:01:51;;;;;;;4.65;2.67;;;37.80;38.50;;;45.58;19.20;102117.59;5037196;28;20714;-57
2023/08/20 10:04:18;;;;;;;5.15;3.50;;;37.90;37.90;;;44.97;20.49;102109.63;5035276;28;20687;-56
2023/08/20 10:06:47;;;;;;;5.65;3.50;;;38.10;37.90;;;45.09;20.48;102118.91;5035948;28;20195;-58
2023/08/20 10:09:16;;;;;;;5.43;2.58;;;38.00;38.00;;;45.43;20.38;102106.69;5034993;28;20191;-57
2023/08/20 10:11:43;;;;;;;7.28;3.10;;;38.10;38.50;;;45.51;20.10;102111.13;5035752;28;20536;-58
2023/08/20 10:14:11;;;;;;;4.10;3.20;;;38.10;37.90;;;44.68;20.40;102107.56;5035534;28;20221;-57
2023/08/20 10:16:40;;;;;;;4.55;3.03;;;38.00;37.40;;;43.92;21.21;102111.34;5035834;28;20197;-57